Delta Virtual Airport Information Service

Tokyo Narita International Airport

ICAO: RJAA Country: Japan
Latitude: 35.7647 Longitude: 140.386
Latest Arrival : DAL69 (1B) (KPDX-RJAA) Latest Departure : DAC0125 (RJAA-RKSI)


WX CaptureLIVE
Data provided by noaa.gov | Fetched at 22:35:50

METAR : RJAA 250300Z VRB02KT 9999 FEW030 BKN040 BKN/// 24/16 Q1010 BECMG 16008KT

TAF :


Runway Data for RJAA
Data provided by openaviationdata.com

Runway ID Mag Var Hdg Length Elevation Surface ILS Freq ILS Id ILS Slope
16L -7 156° 8202 ft 135 ft Asphalt 110.7 ITM 3
16R -7 156° 13132 ft 135 ft Asphalt 111.5 IKF 3
34L -7 336° 13132 ft 135 ft Asphalt 111.9 IYQ 3
34R -7 336° 8202 ft 135 ft Asphalt 110.9 ITJ 3

Tokyo Narita International Airport, Japan
Use only for reference purposes



Not for navigational purposes.